createdAt,value
2023-04-09T00:01:09.076Z,21.98
2023-04-09T00:03:37.007Z,26.13
2023-04-09T00:06:05.602Z,23.42
2023-04-09T00:08:32.510Z,23.45
2023-04-09T00:11:00.519Z,25.05
2023-04-09T00:13:38.583Z,22.98
2023-04-09T00:16:08.784Z,23.45
2023-04-09T00:18:36.231Z,23.25
2023-04-09T00:21:03.066Z,20.58
2023-04-09T00:23:29.838Z,34.28
2023-04-09T00:25:56.643Z,27.88
2023-04-09T00:28:23.414Z,22.77
2023-04-09T00:30:50.345Z,23.10
2023-04-09T00:33:17.131Z,23.38
2023-04-09T00:35:43.964Z,22.52
2023-04-09T00:38:11.714Z,23.27
2023-04-09T00:40:38.885Z,23.05
2023-04-09T00:43:06.095Z,22.80
2023-04-09T00:45:33.710Z,23.95
2023-04-09T00:48:01.234Z,23.77
2023-04-09T00:50:28.219Z,24.52
2023-04-09T00:52:56.102Z,23.67
2023-04-09T00:55:22.906Z,22.98
2023-04-09T00:57:49.636Z,25.67
2023-04-09T01:00:16.693Z,24.75
2023-04-09T01:02:44.258Z,24.50
2023-04-09T01:05:13.002Z,23.85
2023-04-09T01:08:01.891Z,25.10
2023-04-09T01:10:46.347Z,27.25
2023-04-09T01:13:20.848Z,26.73
2023-04-09T01:15:56.113Z,24.95
2023-04-09T01:18:29.977Z,26.17
2023-04-09T01:21:02.481Z,25.50
2023-04-09T01:23:56.634Z,24.00
2023-04-09T01:26:47.818Z,24.98
2023-04-09T01:29:17.469Z,25.70
2023-04-09T01:31:47.330Z,24.23
2023-04-09T01:34:15.761Z,28.50
2023-04-09T01:36:50.521Z,27.55
2023-04-09T01:39:18.014Z,26.85
2023-04-09T01:41:46.469Z,28.50
2023-04-09T01:44:14.542Z,24.38
2023-04-09T01:46:43.951Z,26.38
2023-04-09T01:49:11.548Z,25.45
2023-04-09T01:51:38.762Z,25.60
2023-04-09T01:54:06.059Z,29.20
2023-04-09T01:56:47.848Z,24.73
2023-04-09T01:59:14.975Z,27.90
2023-04-09T02:01:50.558Z,26.08
2023-04-09T02:04:27.181Z,25.40
2023-04-09T02:06:58.690Z,26.17
2023-04-09T02:09:29.575Z,25.98
2023-04-09T02:12:00.511Z,27.17
2023-04-09T02:14:28.836Z,28.73
2023-04-09T02:16:56.860Z,28.23
2023-04-09T02:19:23.958Z,27.55
2023-04-09T02:21:50.741Z,28.30
2023-04-09T02:24:17.822Z,28.23
2023-04-09T02:26:44.575Z,26.95
2023-04-09T02:29:11.348Z,27.08
2023-04-09T02:31:38.105Z,27.30
2023-04-09T02:34:07.680Z,29.67
2023-04-09T02:36:34.450Z,28.33
2023-04-09T02:39:01.186Z,31.55
2023-04-09T02:41:27.970Z,30.20
2023-04-09T02:43:55.088Z,29.50
2023-04-09T02:46:21.872Z,29.25
2023-04-09T02:48:48.640Z,29.90
2023-04-09T02:51:17.994Z,28.02
2023-04-09T02:53:45.632Z,31.15
2023-04-09T02:56:13.125Z,27.95
2023-04-09T02:58:39.878Z,30.80
2023-04-09T03:01:09.602Z,29.63
2023-04-09T03:03:37.446Z,30.17
2023-04-09T03:06:06.317Z,30.05
2023-04-09T03:08:33.575Z,32.20
2023-04-09T03:11:00.879Z,30.88
2023-04-09T03:13:32.351Z,32.88
2023-04-09T03:15:59.101Z,32.95
2023-04-09T03:18:25.909Z,31.35
2023-04-09T03:20:56.096Z,28.48
2023-04-09T03:23:23.328Z,31.05
2023-04-09T03:26:00.061Z,29.80
2023-04-09T03:28:26.819Z,30.50
2023-04-09T03:30:54.052Z,29.63
2023-04-09T03:33:20.857Z,28.75
2023-04-09T03:35:48.246Z,31.23
2023-04-09T03:38:15.068Z,30.70
2023-04-09T03:40:42.739Z,29.58
2023-04-09T03:43:12.038Z,29.27
2023-04-09T03:45:39.285Z,31.85
2023-04-09T03:48:06.354Z,32.38
2023-04-09T03:50:39.956Z,29.00
2023-04-09T03:53:07.154Z,29.42
2023-04-09T03:55:34.414Z,31.48
2023-04-09T03:58:01.562Z,30.20
2023-04-09T04:00:28.337Z,29.40
2023-04-09T04:02:56.341Z,31.67
2023-04-09T04:05:26.066Z,31.15
2023-04-09T04:07:53.326Z,30.52
2023-04-09T04:10:22.300Z,30.48
2023-04-09T04:12:49.084Z,28.50
2023-04-09T04:15:15.924Z,30.38
2023-04-09T04:17:44.442Z,31.65
2023-04-09T04:20:13.343Z,32.15
2023-04-09T04:22:40.234Z,29.20
2023-04-09T04:25:07.123Z,29.05
2023-04-09T04:27:34.125Z,28.38
2023-04-09T04:30:03.390Z,29.52
2023-04-09T04:32:30.866Z,29.92
2023-04-09T04:34:57.659Z,29.05
2023-04-09T04:37:25.183Z,29.83
2023-04-09T04:39:51.940Z,30.13
2023-04-09T04:42:18.683Z,30.42
2023-04-09T04:44:45.809Z,28.48
2023-04-09T04:47:12.797Z,32.35
2023-04-09T04:49:39.590Z,30.77
2023-04-09T04:52:07.795Z,32.40
2023-04-09T04:54:34.962Z,33.15
2023-04-09T04:57:02.385Z,32.13
2023-04-09T04:59:29.901Z,29.58
2023-04-09T05:01:57.185Z,30.23
2023-04-09T05:04:25.686Z,30.50
2023-04-09T05:06:52.672Z,31.15
2023-04-09T05:09:22.520Z,32.55
2023-04-09T05:11:49.303Z,31.17
2023-04-09T05:14:17.568Z,30.38
2023-04-09T05:16:44.621Z,31.67
2023-04-09T05:19:11.377Z,30.42
2023-04-09T05:21:39.285Z,28.95
2023-04-09T05:24:06.779Z,28.80
2023-04-09T05:26:33.614Z,31.98
2023-04-09T05:29:02.938Z,30.92
2023-04-09T05:31:29.705Z,33.15
2023-04-09T05:33:56.662Z,32.10
2023-04-09T05:36:23.826Z,30.83
2023-04-09T05:38:50.721Z,32.15
2023-04-09T05:41:17.726Z,30.80
2023-04-09T05:43:44.563Z,31.02
2023-04-09T05:46:11.441Z,32.28
2023-04-09T05:48:38.240Z,31.05
2023-04-09T05:51:05.324Z,29.25
2023-04-09T05:53:32.445Z,31.48
2023-04-09T05:55:59.288Z,31.83
2023-04-09T05:58:26.451Z,33.22
2023-04-09T06:00:53.281Z,33.53
2023-04-09T06:03:22.973Z,33.20
2023-04-09T06:05:50.193Z,33.15
2023-04-09T06:08:17.364Z,30.55
2023-04-09T06:10:44.123Z,35.38
2023-04-09T06:13:11.351Z,32.95
2023-04-09T06:15:39.574Z,33.60
2023-04-09T06:18:06.740Z,33.28
2023-04-09T06:20:33.693Z,31.60
2023-04-09T06:23:00.984Z,34.10
2023-04-09T06:25:27.752Z,31.60
2023-04-09T06:27:54.871Z,33.83
2023-04-09T06:30:21.908Z,31.88
2023-04-09T06:32:54.414Z,32.03
2023-04-09T06:35:22.135Z,32.58
2023-04-09T06:37:49.032Z,32.80
2023-04-09T06:40:16.477Z,30.98
2023-04-09T06:42:43.228Z,30.60
2023-04-09T06:45:10.655Z,30.73
2023-04-09T06:47:37.789Z,28.77
2023-04-09T06:50:05.365Z,28.92
2023-04-09T06:52:32.151Z,27.50
2023-04-09T06:54:58.996Z,30.45
2023-04-09T06:57:26.715Z,31.83
2023-04-09T06:59:53.486Z,33.25
2023-04-09T07:02:20.644Z,32.45
2023-04-09T07:04:49.146Z,33.60
2023-04-09T07:07:15.997Z,30.02
2023-04-09T07:09:43.139Z,32.25
2023-04-09T07:12:10.738Z,29.50
2023-04-09T07:14:37.481Z,32.50
2023-04-09T07:17:04.563Z,31.15
2023-04-09T07:19:31.735Z,34.10
2023-04-09T07:21:58.463Z,33.08
2023-04-09T07:24:25.580Z,32.85
2023-04-09T07:26:52.626Z,35.20
2023-04-09T07:29:20.824Z,33.30
2023-04-09T07:31:48.182Z,35.30
2023-04-09T07:34:15.046Z,33.28
2023-04-09T07:36:43.109Z,34.60
2023-04-09T07:39:09.926Z,36.08
2023-04-09T07:41:37.918Z,34.90
2023-04-09T07:44:06.308Z,31.90
2023-04-09T07:46:33.284Z,33.67
2023-04-09T07:49:00.704Z,30.40
2023-04-09T07:51:28.124Z,31.92
2023-04-09T07:53:55.502Z,35.95
2023-04-09T07:56:22.442Z,32.58
2023-04-09T07:58:49.700Z,32.60
2023-04-09T08:01:16.969Z,32.85
2023-04-09T08:03:43.884Z,32.40
2023-04-09T08:06:10.818Z,32.28
2023-04-09T08:08:38.089Z,30.30
2023-04-09T08:11:06.272Z,30.83
2023-04-09T08:13:33.155Z,33.15
2023-04-09T08:16:03.886Z,33.20
2023-04-09T08:18:31.288Z,30.25
2023-04-09T08:20:59.792Z,28.80
2023-04-09T08:23:26.537Z,31.52
2023-04-09T08:25:53.278Z,29.35
2023-04-09T08:28:22.405Z,28.83
2023-04-09T08:30:49.749Z,31.63
2023-04-09T08:33:19.678Z,30.90
2023-04-09T08:35:47.073Z,33.35
2023-04-09T08:38:17.573Z,29.05
2023-04-09T08:40:45.039Z,32.22
2023-04-09T08:43:16.197Z,29.73
2023-04-09T08:45:43.540Z,29.25
2023-04-09T08:48:13.556Z,30.95
2023-04-09T08:50:41.098Z,28.45
2023-04-09T08:53:09.638Z,30.63
2023-04-09T08:55:37.845Z,27.65
2023-04-09T08:58:07.405Z,27.55
2023-04-09T09:00:34.220Z,27.38
2023-04-09T09:03:11.058Z,31.20
2023-04-09T09:05:44.498Z,28.95
2023-04-09T09:08:26.461Z,28.90
2023-04-09T09:10:53.777Z,29.08
2023-04-09T09:13:23.479Z,27.58
2023-04-09T09:15:55.664Z,27.65
2023-04-09T09:18:42.137Z,29.00
2023-04-09T09:21:19.721Z,28.33
2023-04-09T09:23:48.411Z,29.10
2023-04-09T09:26:19.640Z,27.00
2023-04-09T09:28:48.367Z,29.00
2023-04-09T09:31:16.630Z,30.45
2023-04-09T09:33:44.724Z,27.70
2023-04-09T09:36:11.785Z,26.33
2023-04-09T09:38:58.634Z,27.58
2023-04-09T09:41:26.243Z,27.50
2023-04-09T09:43:53.097Z,25.85
2023-04-09T09:46:22.489Z,25.75
2023-04-09T09:48:49.847Z,28.25
2023-04-09T09:51:17.531Z,26.38
2023-04-09T09:53:47.125Z,28.25
2023-04-09T09:56:19.612Z,27.42
2023-04-09T09:59:09.510Z,25.15
2023-04-09T10:01:37.168Z,28.27
2023-04-09T10:04:06.697Z,27.13
2023-04-09T10:06:38.771Z,25.73
2023-04-09T10:09:06.964Z,25.88
2023-04-09T10:11:36.710Z,27.92
2023-04-09T10:14:05.840Z,29.27
2023-04-09T10:16:33.769Z,28.60
2023-04-09T10:19:01.819Z,26.27
2023-04-09T10:21:47.719Z,27.80
2023-04-09T10:24:16.091Z,26.58
2023-04-09T10:26:47.396Z,28.38
2023-04-09T10:29:17.197Z,26.83
2023-04-09T10:32:10.394Z,27.92
2023-04-09T10:34:41.951Z,26.58
2023-04-09T10:37:23.519Z,27.75
2023-04-09T10:39:52.877Z,28.80
2023-04-09T10:42:41.940Z,28.25
2023-04-09T10:45:14.788Z,27.88
2023-04-09T10:47:43.425Z,29.77
2023-04-09T10:50:19.251Z,27.23
2023-04-09T10:52:47.362Z,29.23
2023-04-09T10:55:36.644Z,27.15
2023-04-09T10:58:06.395Z,26.75
2023-04-09T11:00:38.428Z,29.23
2023-04-09T11:03:20.858Z,28.60
2023-04-09T11:05:59.725Z,29.25
2023-04-09T11:08:30.295Z,29.42
2023-04-09T11:10:58.540Z,30.88
2023-04-09T11:13:25.749Z,31.13
2023-04-09T11:15:55.429Z,29.25
2023-04-09T11:18:27.491Z,28.73
2023-04-09T11:20:56.434Z,27.60
2023-04-09T11:23:24.492Z,27.02
2023-04-09T11:25:52.916Z,26.52
2023-04-09T11:28:20.683Z,28.60
2023-04-09T11:30:47.944Z,29.70
2023-04-09T11:33:16.937Z,29.02
2023-04-09T11:35:45.935Z,30.55
2023-04-09T11:38:12.708Z,30.90
2023-04-09T11:40:50.017Z,26.67
2023-04-09T11:43:17.794Z,29.15
2023-04-09T11:45:45.003Z,28.92
2023-04-09T11:48:13.661Z,29.23
2023-04-09T11:50:41.713Z,30.48
2023-04-09T11:53:22.573Z,27.20
2023-04-09T11:55:53.577Z,31.73
2023-04-09T11:58:25.669Z,27.33
2023-04-09T12:00:58.738Z,29.33
2023-04-09T12:03:36.663Z,27.33
2023-04-09T12:06:05.811Z,30.10
2023-04-09T12:08:37.280Z,26.33
2023-04-09T12:11:16.444Z,28.65
2023-04-09T12:13:44.926Z,31.02
2023-04-09T12:16:14.441Z,30.25
2023-04-09T12:18:44.038Z,25.70
2023-04-09T12:21:10.923Z,29.02
2023-04-09T12:23:38.100Z,29.95
2023-04-09T12:26:07.453Z,28.30
2023-04-09T12:28:34.748Z,28.45
2023-04-09T12:31:31.058Z,24.40
2023-04-09T12:33:57.930Z,27.38
2023-04-09T12:36:25.238Z,28.10
2023-04-09T12:38:52.812Z,31.92
2023-04-09T12:41:19.776Z,28.10
2023-04-09T12:43:47.625Z,29.83
2023-04-09T12:46:14.516Z,29.38
2023-04-09T12:48:41.911Z,29.08
2023-04-09T12:51:09.021Z,27.90
2023-04-09T12:53:36.260Z,26.75
2023-04-09T12:56:03.017Z,26.98
2023-04-09T12:58:29.836Z,29.48
2023-04-09T13:00:57.952Z,28.70
2023-04-09T13:03:25.877Z,31.73
2023-04-09T13:05:53.425Z,30.15
2023-04-09T13:08:20.237Z,25.83
2023-04-09T13:10:46.989Z,26.98
2023-04-09T13:13:26.062Z,29.35
2023-04-09T13:15:55.123Z,29.10
2023-04-09T13:18:21.859Z,28.35
2023-04-09T13:20:49.050Z,27.83
2023-04-09T13:23:16.025Z,28.13
2023-04-09T13:25:42.915Z,29.88
2023-04-09T13:28:10.327Z,26.55
2023-04-09T13:30:37.282Z,28.33
2023-04-09T13:33:04.536Z,28.20
2023-04-09T13:35:31.480Z,26.27
2023-04-09T13:37:58.613Z,27.30
2023-04-09T13:40:26.265Z,27.30
2023-04-09T13:42:53.012Z,30.50
2023-04-09T13:45:24.308Z,27.35
2023-04-09T13:47:51.215Z,29.33
2023-04-09T13:50:18.691Z,31.60
2023-04-09T13:52:45.631Z,27.20
2023-04-09T13:55:12.806Z,29.05
2023-04-09T13:57:39.591Z,28.13
2023-04-09T14:00:08.284Z,27.05
2023-04-09T14:02:35.380Z,27.65
2023-04-09T14:05:04.337Z,27.25
2023-04-09T14:07:31.134Z,27.75
2023-04-09T14:09:58.427Z,27.75
2023-04-09T14:12:25.329Z,29.33
2023-04-09T14:14:55.706Z,26.00
2023-04-09T14:17:22.541Z,28.67
2023-04-09T14:19:49.629Z,26.70
2023-04-09T14:22:16.426Z,29.38
2023-04-09T14:24:43.182Z,31.55
2023-04-09T14:27:10.296Z,27.13
2023-04-09T14:29:37.063Z,27.58
2023-04-09T14:32:04.214Z,54.95
2023-04-09T14:34:33.922Z,31.58
2023-04-09T14:37:01.003Z,30.65
2023-04-09T14:39:27.827Z,29.67
2023-04-09T14:41:57.472Z,28.45
2023-04-09T14:44:27.327Z,26.02
2023-04-09T14:46:55.203Z,27.40
2023-04-09T14:49:22.886Z,28.08
2023-04-09T14:51:49.696Z,31.55
2023-04-09T14:54:17.273Z,30.58
2023-04-09T14:56:44.033Z,32.50
2023-04-09T14:59:11.189Z,32.17
2023-04-09T15:01:38.102Z,31.15
2023-04-09T15:04:05.003Z,32.15
2023-04-09T15:06:32.860Z,32.15
2023-04-09T15:08:59.588Z,31.17
2023-04-09T15:11:28.489Z,32.33
2023-04-09T15:13:57.320Z,33.60
2023-04-09T15:16:27.404Z,33.97
2023-04-09T15:18:57.684Z,33.80
2023-04-09T15:21:24.722Z,32.55
2023-04-09T15:23:51.685Z,33.75
2023-04-09T15:26:18.537Z,33.90
2023-04-09T15:28:47.612Z,30.98
2023-04-09T15:31:14.488Z,33.45
2023-04-09T15:33:46.062Z,33.20
2023-04-09T15:36:12.852Z,31.50
2023-04-09T15:38:39.732Z,31.20
2023-04-09T15:41:07.293Z,31.80
2023-04-09T15:43:34.096Z,31.85
2023-04-09T15:46:08.481Z,30.52
2023-04-09T15:48:35.686Z,32.08
2023-04-09T15:51:02.793Z,31.27
2023-04-09T15:53:29.920Z,32.17
2023-04-09T15:55:59.386Z,32.72
2023-04-09T15:58:26.804Z,33.80
2023-04-09T16:00:54.990Z,30.42
2023-04-09T16:03:22.219Z,31.90
2023-04-09T16:05:50.709Z,32.30
2023-04-09T16:08:18.175Z,33.38
2023-04-09T16:10:54.188Z,35.53
2023-04-09T16:13:21.517Z,33.58
2023-04-09T16:15:49.917Z,29.45
2023-04-09T16:18:17.421Z,30.15
2023-04-09T16:20:45.765Z,31.13
2023-04-09T16:23:14.100Z,29.80
2023-04-09T16:25:41.607Z,30.20
2023-04-09T16:28:09.133Z,30.17
2023-04-09T16:30:36.700Z,29.98
2023-04-09T16:33:04.123Z,27.45
2023-04-09T16:35:30.924Z,29.38
2023-04-09T16:37:58.556Z,29.70
2023-04-09T16:40:26.465Z,31.27
2023-04-09T16:42:53.202Z,31.83
2023-04-09T16:45:20.058Z,32.03
2023-04-09T16:47:50.838Z,33.38
2023-04-09T16:50:20.566Z,35.75
2023-04-09T16:52:47.799Z,34.17
2023-04-09T16:55:14.704Z,34.92
2023-04-09T16:57:41.746Z,33.30
2023-04-09T17:00:09.408Z,33.33
2023-04-09T17:02:39.925Z,27.67
2023-04-09T17:05:09.010Z,33.72
2023-04-09T17:07:36.750Z,33.58
2023-04-09T17:10:06.811Z,32.55
2023-04-09T17:12:37.138Z,36.35
2023-04-09T17:15:04.322Z,31.63
2023-04-09T17:17:37.644Z,30.90
2023-04-09T17:20:04.866Z,34.75
2023-04-09T17:22:38.682Z,34.17
2023-04-09T17:25:08.225Z,29.92
2023-04-09T17:27:35.763Z,31.58
2023-04-09T17:30:04.395Z,32.47
2023-04-09T17:32:46.190Z,35.33
2023-04-09T17:35:18.014Z,32.00
2023-04-09T17:37:45.250Z,31.23
2023-04-09T17:40:14.949Z,32.30
2023-04-09T17:42:41.849Z,34.50
2023-04-09T17:45:09.224Z,33.45
2023-04-09T17:47:36.643Z,31.88
2023-04-09T17:50:04.500Z,34.03
2023-04-09T17:52:37.068Z,30.63
2023-04-09T17:55:14.385Z,31.30
2023-04-09T17:57:41.745Z,32.42
2023-04-09T18:00:09.892Z,32.08
2023-04-09T18:02:37.192Z,31.75
2023-04-09T18:05:04.859Z,35.13
2023-04-09T18:07:35.527Z,30.15
2023-04-09T18:10:06.308Z,29.67
2023-04-09T18:12:34.703Z,31.98
2023-04-09T18:15:01.764Z,30.52
2023-04-09T18:17:28.553Z,32.03
2023-04-09T18:19:58.801Z,30.20
2023-04-09T18:22:27.527Z,29.75
2023-04-09T18:24:58.481Z,33.88
2023-04-09T18:27:27.390Z,32.13
2023-04-09T18:29:56.630Z,33.10
2023-04-09T18:32:23.708Z,33.10
2023-04-09T18:34:51.485Z,31.23
2023-04-09T18:37:20.972Z,32.58
2023-04-09T18:39:48.217Z,33.30
2023-04-09T18:42:15.001Z,32.00
2023-04-09T18:44:43.619Z,32.80
2023-04-09T18:47:11.447Z,30.38
2023-04-09T18:49:40.550Z,38.10
2023-04-09T18:52:09.512Z,34.90
2023-04-09T18:54:37.202Z,39.53
2023-04-09T18:57:04.778Z,38.15
2023-04-09T18:59:33.584Z,32.97
2023-04-09T19:02:06.873Z,34.35
2023-04-09T19:04:40.553Z,33.03
2023-04-09T19:07:08.117Z,31.75
2023-04-09T19:09:37.307Z,30.08
2023-04-09T19:12:04.616Z,31.52
2023-04-09T19:14:31.494Z,30.00
2023-04-09T19:17:00.042Z,32.13
2023-04-09T19:19:29.492Z,33.42
2023-04-09T19:21:58.218Z,33.92
2023-04-09T19:24:27.107Z,31.77
2023-04-09T19:26:57.299Z,31.90
2023-04-09T19:29:24.143Z,32.38
2023-04-09T19:31:54.533Z,29.95
2023-04-09T19:34:22.072Z,31.67
2023-04-09T19:36:49.258Z,28.88
2023-04-09T19:39:16.401Z,32.45
2023-04-09T19:41:43.500Z,28.42
2023-04-09T19:44:13.296Z,34.30
2023-04-09T19:46:40.136Z,30.75
2023-04-09T19:49:07.352Z,29.75
2023-04-09T19:51:34.375Z,32.28
2023-04-09T19:54:01.537Z,31.52
2023-04-09T19:56:28.333Z,32.00
2023-04-09T19:59:05.301Z,32.15
2023-04-09T20:01:32.935Z,31.25
2023-04-09T20:04:04.497Z,29.10
2023-04-09T20:06:33.951Z,31.08
2023-04-09T20:09:01.820Z,31.95
2023-04-09T20:11:29.073Z,30.73
2023-04-09T20:13:57.271Z,29.90
2023-04-09T20:16:26.767Z,31.65
2023-04-09T20:18:55.417Z,32.22
2023-04-09T20:21:28.927Z,33.25
2023-04-09T20:23:55.939Z,37.50
2023-04-09T20:26:22.762Z,35.13
2023-04-09T20:28:49.861Z,33.45
2023-04-09T20:31:17.586Z,32.08
2023-04-09T20:33:44.378Z,33.78
2023-04-09T20:36:19.288Z,34.58
2023-04-09T20:38:48.170Z,34.17
2023-04-09T20:41:17.276Z,36.60
2023-04-09T20:43:46.862Z,35.22
2023-04-09T20:46:14.432Z,36.03
2023-04-09T20:48:42.169Z,29.75
2023-04-09T20:51:13.268Z,33.88
2023-04-09T20:53:40.477Z,33.45
2023-04-09T20:56:09.077Z,38.30
2023-04-09T20:58:36.190Z,33.60
2023-04-09T21:01:07.953Z,34.45
2023-04-09T21:03:36.045Z,35.65
2023-04-09T21:06:03.606Z,37.30
2023-04-09T21:08:31.428Z,36.53
2023-04-09T21:10:59.005Z,32.60
2023-04-09T21:13:27.354Z,34.42
2023-04-09T21:15:54.711Z,33.58
2023-04-09T21:18:21.648Z,35.70
2023-04-09T21:20:49.807Z,34.13
2023-04-09T21:23:16.772Z,34.63
2023-04-09T21:25:44.373Z,33.88
2023-04-09T21:28:12.502Z,34.28
2023-04-09T21:30:39.826Z,34.05
2023-04-09T21:33:09.047Z,36.72
2023-04-09T21:35:37.244Z,31.95
2023-04-09T21:38:04.282Z,33.22
2023-04-09T21:40:32.403Z,32.85
2023-04-09T21:43:05.188Z,38.33
2023-04-09T21:45:32.664Z,36.42
2023-04-09T21:48:01.207Z,33.22
2023-04-09T21:50:28.388Z,33.25
2023-04-09T21:52:55.556Z,36.67
2023-04-09T21:55:23.215Z,35.00
2023-04-09T21:57:55.295Z,33.33
2023-04-09T22:00:25.195Z,35.35
2023-04-09T22:02:53.861Z,35.25
2023-04-09T22:05:20.678Z,35.35
2023-04-09T22:07:48.160Z,38.60
2023-04-09T22:10:14.955Z,38.25
2023-04-09T22:12:42.340Z,36.75
2023-04-09T22:15:09.521Z,36.35
2023-04-09T22:17:36.688Z,36.25
2023-04-09T22:20:04.858Z,36.10
2023-04-09T22:22:34.122Z,36.35
2023-04-09T22:25:11.384Z,38.60
2023-04-09T22:27:40.513Z,37.67
2023-04-09T22:30:07.947Z,35.83
2023-04-09T22:32:35.155Z,40.38
2023-04-09T22:35:02.793Z,37.78
2023-04-09T22:37:31.160Z,37.97
2023-04-09T22:39:58.340Z,37.33
2023-04-09T22:42:29.202Z,39.00
2023-04-09T22:44:56.041Z,38.05
2023-04-09T22:47:24.837Z,38.92
2023-04-09T22:49:56.744Z,38.58
2023-04-09T22:52:34.743Z,36.30
2023-04-09T22:55:02.714Z,37.92
2023-04-09T22:57:30.729Z,38.63
2023-04-09T22:59:58.899Z,38.83
2023-04-09T23:02:26.516Z,39.75
2023-04-09T23:04:53.511Z,38.60
2023-04-09T23:07:20.342Z,37.70
2023-04-09T23:09:47.483Z,37.22
2023-04-09T23:12:17.393Z,39.10
2023-04-09T23:14:48.201Z,38.95
2023-04-09T23:17:21.387Z,40.83
2023-04-09T23:19:48.539Z,39.70
2023-04-09T23:22:16.132Z,41.13
2023-04-09T23:24:42.910Z,38.17
2023-04-09T23:27:10.739Z,41.42
2023-04-09T23:29:38.723Z,43.47
2023-04-09T23:32:11.106Z,41.75
2023-04-09T23:34:38.082Z,43.92
2023-04-09T23:37:15.204Z,40.28
2023-04-09T23:39:42.040Z,44.38
2023-04-09T23:42:08.974Z,40.38
2023-04-09T23:44:38.986Z,40.83
2023-04-09T23:47:07.180Z,42.38
2023-04-09T23:49:34.216Z,42.67
2023-04-09T23:52:01.351Z,45.60
2023-04-09T23:54:29.629Z,44.42
2023-04-09T23:56:58.582Z,41.30
2023-04-09T23:59:25.987Z,39.22
